sensor_id;sensor_type;location;lat;lon;timestamp;P1;durP1;ratioP1;P2;durP2;ratioP2
75926;SDS011;64605;48.296;16.416;2023-04-24T00:00:27;6.60;;;5.25;;
75926;SDS011;64605;48.296;16.416;2023-04-24T00:02:52;5.40;;;4.60;;
75926;SDS011;64605;48.296;16.416;2023-04-24T00:05:21;6.68;;;5.35;;
75926;SDS011;64605;48.296;16.416;2023-04-24T00:07:47;8.65;;;5.35;;
75926;SDS011;64605;48.296;16.416;2023-04-24T00:10:13;5.97;;;5.38;;
75926;SDS011;64605;48.296;16.416;2023-04-24T00:12:38;7.55;;;5.53;;
75926;SDS011;64605;48.296;16.416;2023-04-24T00:15:04;8.70;;;4.95;;
75926;SDS011;64605;48.296;16.416;2023-04-24T00:17:31;6.03;;;5.35;;
75926;SDS011;64605;48.296;16.416;2023-04-24T00:19:56;6.95;;;5.40;;
75926;SDS011;64605;48.296;16.416;2023-04-24T00:22:27;6.30;;;5.70;;
75926;SDS011;64605;48.296;16.416;2023-04-24T00:24:53;7.68;;;6.20;;
75926;SDS011;64605;48.296;16.416;2023-04-24T00:27:20;6.80;;;6.07;;
75926;SDS011;64605;48.296;16.416;2023-04-24T00:29:46;7.35;;;5.63;;
75926;SDS011;64605;48.296;16.416;2023-04-24T00:32:12;7.30;;;6.10;;
75926;SDS011;64605;48.296;16.416;2023-04-24T00:34:38;7.18;;;6.38;;
75926;SDS011;64605;48.296;16.416;2023-04-24T00:37:03;7.05;;;6.38;;
75926;SDS011;64605;48.296;16.416;2023-04-24T00:39:29;7.97;;;6.65;;
75926;SDS011;64605;48.296;16.416;2023-04-24T00:41:55;7.68;;;6.85;;
75926;SDS011;64605;48.296;16.416;2023-04-24T00:44:22;8.60;;;7.70;;
75926;SDS011;64605;48.296;16.416;2023-04-24T00:46:48;9.43;;;7.85;;
75926;SDS011;64605;48.296;16.416;2023-04-24T00:49:17;9.25;;;7.20;;
75926;SDS011;64605;48.296;16.416;2023-04-24T00:51:44;8.57;;;6.63;;
75926;SDS011;64605;48.296;16.416;2023-04-24T00:54:10;8.50;;;7.60;;
75926;SDS011;64605;48.296;16.416;2023-04-24T00:56:36;9.70;;;8.02;;
75926;SDS011;64605;48.296;16.416;2023-04-24T00:59:03;10.98;;;8.50;;
75926;SDS011;64605;48.296;16.416;2023-04-24T01:01:29;10.30;;;8.73;;
75926;SDS011;64605;48.296;16.416;2023-04-24T01:03:55;9.10;;;8.15;;
75926;SDS011;64605;48.296;16.416;2023-04-24T01:06:22;10.18;;;9.15;;
75926;SDS011;64605;48.296;16.416;2023-04-24T01:08:52;9.98;;;8.70;;
75926;SDS011;64605;48.296;16.416;2023-04-24T01:11:18;9.45;;;8.52;;
75926;SDS011;64605;48.296;16.416;2023-04-24T01:13:45;13.13;;;8.88;;
75926;SDS011;64605;48.296;16.416;2023-04-24T01:16:12;9.90;;;8.90;;
75926;SDS011;64605;48.296;16.416;2023-04-24T01:18:39;11.00;;;8.82;;
75926;SDS011;64605;48.296;16.416;2023-04-24T01:21:06;9.55;;;8.52;;
75926;SDS011;64605;48.296;16.416;2023-04-24T01:23:34;15.48;;;8.70;;
75926;SDS011;64605;48.296;16.416;2023-04-24T01:26:00;10.55;;;9.55;;
75926;SDS011;64605;48.296;16.416;2023-04-24T01:28:26;10.07;;;9.07;;
75926;SDS011;64605;48.296;16.416;2023-04-24T01:30:52;11.63;;;9.10;;
75926;SDS011;64605;48.296;16.416;2023-04-24T01:33:18;12.25;;;9.15;;
75926;SDS011;64605;48.296;16.416;2023-04-24T01:35:46;9.55;;;8.65;;
75926;SDS011;64605;48.296;16.416;2023-04-24T01:38:13;10.27;;;9.20;;
75926;SDS011;64605;48.296;16.416;2023-04-24T01:40:39;10.45;;;9.35;;
75926;SDS011;64605;48.296;16.416;2023-04-24T01:43:04;12.07;;;9.43;;
75926;SDS011;64605;48.296;16.416;2023-04-24T01:45:30;11.90;;;9.43;;
75926;SDS011;64605;48.296;16.416;2023-04-24T01:47:56;11.20;;;10.10;;
75926;SDS011;64605;48.296;16.416;2023-04-24T01:50:22;12.15;;;9.25;;
75926;SDS011;64605;48.296;16.416;2023-04-24T01:52:48;11.95;;;9.38;;
75926;SDS011;64605;48.296;16.416;2023-04-24T01:55:13;11.10;;;9.48;;
75926;SDS011;64605;48.296;16.416;2023-04-24T01:57:39;11.55;;;10.30;;
75926;SDS011;64605;48.296;16.416;2023-04-24T02:00:05;11.15;;;9.80;;
75926;SDS011;64605;48.296;16.416;2023-04-24T02:02:32;10.93;;;9.80;;
75926;SDS011;64605;48.296;16.416;2023-04-24T02:04:58;9.75;;;8.73;;
75926;SDS011;64605;48.296;16.416;2023-04-24T02:07:23;13.40;;;9.02;;
75926;SDS011;64605;48.296;16.416;2023-04-24T02:09:49;11.20;;;9.02;;
75926;SDS011;64605;48.296;16.416;2023-04-24T02:12:15;10.68;;;9.57;;
75926;SDS011;64605;48.296;16.416;2023-04-24T02:14:42;11.15;;;10.05;;
75926;SDS011;64605;48.296;16.416;2023-04-24T02:17:08;11.02;;;9.90;;
75926;SDS011;64605;48.296;16.416;2023-04-24T02:19:34;12.02;;;10.73;;
75926;SDS011;64605;48.296;16.416;2023-04-24T02:22:00;11.70;;;9.98;;
75926;SDS011;64605;48.296;16.416;2023-04-24T02:24:26;12.10;;;10.15;;
75926;SDS011;64605;48.296;16.416;2023-04-24T02:26:51;11.95;;;9.15;;
75926;SDS011;64605;48.296;16.416;2023-04-24T02:29:17;10.65;;;9.55;;
75926;SDS011;64605;48.296;16.416;2023-04-24T02:31:43;10.30;;;9.30;;
75926;SDS011;64605;48.296;16.416;2023-04-24T02:34:08;10.18;;;9.18;;
75926;SDS011;64605;48.296;16.416;2023-04-24T02:36:34;12.02;;;10.80;;
75926;SDS011;64605;48.296;16.416;2023-04-24T02:38:59;10.52;;;9.48;;
75926;SDS011;64605;48.296;16.416;2023-04-24T02:41:26;10.23;;;9.10;;
75926;SDS011;64605;48.296;16.416;2023-04-24T02:43:56;10.95;;;9.88;;
75926;SDS011;64605;48.296;16.416;2023-04-24T02:46:22;10.25;;;9.23;;
75926;SDS011;64605;48.296;16.416;2023-04-24T02:48:48;13.13;;;9.93;;
75926;SDS011;64605;48.296;16.416;2023-04-24T02:51:14;9.05;;;8.15;;
75926;SDS011;64605;48.296;16.416;2023-04-24T02:53:39;9.35;;;7.35;;
75926;SDS011;64605;48.296;16.416;2023-04-24T02:56:05;10.27;;;8.13;;
75926;SDS011;64605;48.296;16.416;2023-04-24T02:58:31;9.93;;;8.15;;
75926;SDS011;64605;48.296;16.416;2023-04-24T03:00:56;10.93;;;7.43;;
75926;SDS011;64605;48.296;16.416;2023-04-24T03:03:23;8.50;;;7.70;;
75926;SDS011;64605;48.296;16.416;2023-04-24T03:05:49;8.38;;;7.47;;
75926;SDS011;64605;48.296;16.416;2023-04-24T03:08:15;12.68;;;7.60;;
75926;SDS011;64605;48.296;16.416;2023-04-24T03:10:41;9.30;;;8.07;;
75926;SDS011;64605;48.296;16.416;2023-04-24T03:13:06;8.35;;;7.10;;
75926;SDS011;64605;48.296;16.416;2023-04-24T03:15:32;9.38;;;7.10;;
75926;SDS011;64605;48.296;16.416;2023-04-24T03:17:57;8.20;;;7.40;;
75926;SDS011;64605;48.296;16.416;2023-04-24T03:20:23;7.55;;;6.85;;
75926;SDS011;64605;48.296;16.416;2023-04-24T03:22:49;7.03;;;6.18;;
75926;SDS011;64605;48.296;16.416;2023-04-24T03:25:15;6.57;;;5.63;;
75926;SDS011;64605;48.296;16.416;2023-04-24T03:27:40;6.60;;;5.85;;
75926;SDS011;64605;48.296;16.416;2023-04-24T03:30:06;7.35;;;5.68;;
75926;SDS011;64605;48.296;16.416;2023-04-24T03:32:33;7.32;;;5.90;;
75926;SDS011;64605;48.296;16.416;2023-04-24T03:34:58;6.03;;;5.28;;
75926;SDS011;64605;48.296;16.416;2023-04-24T03:37:24;8.50;;;6.68;;
75926;SDS011;64605;48.296;16.416;2023-04-24T03:39:51;6.93;;;5.72;;
75926;SDS011;64605;48.296;16.416;2023-04-24T03:42:17;8.48;;;5.90;;
75926;SDS011;64605;48.296;16.416;2023-04-24T03:44:42;7.22;;;5.97;;
75926;SDS011;64605;48.296;16.416;2023-04-24T03:47:08;5.78;;;5.15;;
75926;SDS011;64605;48.296;16.416;2023-04-24T03:49:34;6.63;;;5.93;;
75926;SDS011;64605;48.296;16.416;2023-04-24T03:51:59;7.13;;;5.85;;
75926;SDS011;64605;48.296;16.416;2023-04-24T03:54:25;6.85;;;6.15;;
75926;SDS011;64605;48.296;16.416;2023-04-24T03:56:51;6.45;;;5.63;;
75926;SDS011;64605;48.296;16.416;2023-04-24T03:59:16;8.30;;;5.70;;
75926;SDS011;64605;48.296;16.416;2023-04-24T04:01:42;7.65;;;6.05;;
75926;SDS011;64605;48.296;16.416;2023-04-24T04:04:07;7.20;;;5.55;;
75926;SDS011;64605;48.296;16.416;2023-04-24T04:06:33;7.10;;;6.40;;
75926;SDS011;64605;48.296;16.416;2023-04-24T04:09:01;7.43;;;5.75;;
75926;SDS011;64605;48.296;16.416;2023-04-24T04:11:27;6.60;;;5.90;;
75926;SDS011;64605;48.296;16.416;2023-04-24T04:13:52;5.95;;;5.05;;
75926;SDS011;64605;48.296;16.416;2023-04-24T04:16:18;5.95;;;5.45;;
75926;SDS011;64605;48.296;16.416;2023-04-24T04:18:44;6.63;;;5.85;;
75926;SDS011;64605;48.296;16.416;2023-04-24T04:21:10;5.95;;;5.32;;
75926;SDS011;64605;48.296;16.416;2023-04-24T04:23:36;5.97;;;5.28;;
75926;SDS011;64605;48.296;16.416;2023-04-24T04:26:02;8.50;;;5.38;;
75926;SDS011;64605;48.296;16.416;2023-04-24T04:28:28;7.18;;;5.30;;
75926;SDS011;64605;48.296;16.416;2023-04-24T04:30:56;5.60;;;4.95;;
75926;SDS011;64605;48.296;16.416;2023-04-24T04:33:22;5.63;;;4.85;;
75926;SDS011;64605;48.296;16.416;2023-04-24T04:35:51;8.52;;;4.93;;
75926;SDS011;64605;48.296;16.416;2023-04-24T04:38:17;7.10;;;4.97;;
75926;SDS011;64605;48.296;16.416;2023-04-24T04:40:44;7.57;;;5.07;;
75926;SDS011;64605;48.296;16.416;2023-04-24T04:43:10;5.07;;;4.20;;
75926;SDS011;64605;48.296;16.416;2023-04-24T04:45:38;5.78;;;4.90;;
75926;SDS011;64605;48.296;16.416;2023-04-24T04:48:05;5.47;;;4.32;;
75926;SDS011;64605;48.296;16.416;2023-04-24T04:50:32;5.30;;;4.50;;
75926;SDS011;64605;48.296;16.416;2023-04-24T04:52:58;4.68;;;3.90;;
75926;SDS011;64605;48.296;16.416;2023-04-24T04:55:24;4.30;;;3.90;;
75926;SDS011;64605;48.296;16.416;2023-04-24T04:57:50;5.90;;;3.75;;
75926;SDS011;64605;48.296;16.416;2023-04-24T05:00:17;5.05;;;3.47;;
75926;SDS011;64605;48.296;16.416;2023-04-24T05:02:43;4.65;;;3.90;;
75926;SDS011;64605;48.296;16.416;2023-04-24T05:05:09;8.00;;;3.60;;
75926;SDS011;64605;48.296;16.416;2023-04-24T05:07:34;3.97;;;3.58;;
75926;SDS011;64605;48.296;16.416;2023-04-24T05:10:00;4.28;;;3.10;;
75926;SDS011;64605;48.296;16.416;2023-04-24T05:12:26;4.68;;;3.50;;
75926;SDS011;64605;48.296;16.416;2023-04-24T05:14:52;4.72;;;3.22;;
75926;SDS011;64605;48.296;16.416;2023-04-24T05:17:18;5.28;;;3.28;;
75926;SDS011;64605;48.296;16.416;2023-04-24T05:19:44;3.75;;;3.20;;
75926;SDS011;64605;48.296;16.416;2023-04-24T05:22:09;3.80;;;3.42;;
75926;SDS011;64605;48.296;16.416;2023-04-24T05:24:36;3.83;;;3.30;;
75926;SDS011;64605;48.296;16.416;2023-04-24T05:27:02;42.38;;;18.77;;
75926;SDS011;64605;48.296;16.416;2023-04-24T05:29:29;6.75;;;3.90;;
75926;SDS011;64605;48.296;16.416;2023-04-24T05:31:56;6.22;;;4.68;;
75926;SDS011;64605;48.296;16.416;2023-04-24T05:34:22;2.95;;;2.67;;
75926;SDS011;64605;48.296;16.416;2023-04-24T05:36:48;5.10;;;3.03;;
75926;SDS011;64605;48.296;16.416;2023-04-24T05:39:15;4.90;;;3.10;;
75926;SDS011;64605;48.296;16.416;2023-04-24T05:41:41;5.50;;;2.85;;
75926;SDS011;64605;48.296;16.416;2023-04-24T05:44:07;3.35;;;2.83;;
75926;SDS011;64605;48.296;16.416;2023-04-24T05:46:33;11.35;;;4.25;;
75926;SDS011;64605;48.296;16.416;2023-04-24T05:48:58;4.57;;;3.00;;
75926;SDS011;64605;48.296;16.416;2023-04-24T05:51:24;4.53;;;3.17;;
75926;SDS011;64605;48.296;16.416;2023-04-24T05:53:51;4.28;;;2.88;;
75926;SDS011;64605;48.296;16.416;2023-04-24T05:56:16;3.35;;;2.53;;
75926;SDS011;64605;48.296;16.416;2023-04-24T05:58:43;3.47;;;3.00;;
75926;SDS011;64605;48.296;16.416;2023-04-24T06:01:11;3.30;;;2.80;;
75926;SDS011;64605;48.296;16.416;2023-04-24T06:03:37;3.08;;;2.78;;
75926;SDS011;64605;48.296;16.416;2023-04-24T06:06:05;3.22;;;2.92;;
75926;SDS011;64605;48.296;16.416;2023-04-24T06:08:31;4.25;;;2.83;;
75926;SDS011;64605;48.296;16.416;2023-04-24T06:10:57;3.67;;;2.47;;
75926;SDS011;64605;48.296;16.416;2023-04-24T06:13:23;2.50;;;2.20;;
75926;SDS011;64605;48.296;16.416;2023-04-24T06:15:49;3.22;;;2.55;;
75926;SDS011;64605;48.296;16.416;2023-04-24T06:18:15;2.75;;;2.42;;
75926;SDS011;64605;48.296;16.416;2023-04-24T06:20:40;3.80;;;2.60;;
75926;SDS011;64605;48.296;16.416;2023-04-24T06:23:06;2.70;;;1.90;;
75926;SDS011;64605;48.296;16.416;2023-04-24T06:25:32;6.38;;;2.75;;
75926;SDS011;64605;48.296;16.416;2023-04-24T06:27:59;4.72;;;2.42;;
75926;SDS011;64605;48.296;16.416;2023-04-24T06:30:24;4.13;;;2.63;;
75926;SDS011;64605;48.296;16.416;2023-04-24T06:32:50;4.55;;;2.75;;
75926;SDS011;64605;48.296;16.416;2023-04-24T06:35:16;4.45;;;2.55;;
75926;SDS011;64605;48.296;16.416;2023-04-24T06:37:42;3.83;;;2.70;;
75926;SDS011;64605;48.296;16.416;2023-04-24T06:40:08;2.83;;;2.42;;
75926;SDS011;64605;48.296;16.416;2023-04-24T06:42:35;5.35;;;2.30;;
75926;SDS011;64605;48.296;16.416;2023-04-24T06:45:01;3.75;;;2.78;;
75926;SDS011;64605;48.296;16.416;2023-04-24T06:47:27;3.25;;;2.95;;
75926;SDS011;64605;48.296;16.416;2023-04-24T06:49:52;3.15;;;2.80;;
75926;SDS011;64605;48.296;16.416;2023-04-24T06:52:18;2.75;;;2.55;;
75926;SDS011;64605;48.296;16.416;2023-04-24T06:54:44;5.15;;;3.25;;
75926;SDS011;64605;48.296;16.416;2023-04-24T06:57:10;4.25;;;3.15;;
75926;SDS011;64605;48.296;16.416;2023-04-24T06:59:36;3.65;;;2.63;;
75926;SDS011;64605;48.296;16.416;2023-04-24T07:02:02;3.88;;;3.03;;
75926;SDS011;64605;48.296;16.416;2023-04-24T07:04:28;3.38;;;3.08;;
75926;SDS011;64605;48.296;16.416;2023-04-24T07:06:54;3.63;;;2.78;;
75926;SDS011;64605;48.296;16.416;2023-04-24T07:09:21;3.95;;;2.72;;
75926;SDS011;64605;48.296;16.416;2023-04-24T07:11:48;3.05;;;2.78;;
75926;SDS011;64605;48.296;16.416;2023-04-24T07:14:14;5.78;;;2.45;;
75926;SDS011;64605;48.296;16.416;2023-04-24T07:16:40;5.20;;;2.45;;
75926;SDS011;64605;48.296;16.416;2023-04-24T07:19:06;3.47;;;2.30;;
75926;SDS011;64605;48.296;16.416;2023-04-24T07:21:32;4.47;;;2.10;;
75926;SDS011;64605;48.296;16.416;2023-04-24T07:23:58;2.58;;;2.38;;
75926;SDS011;64605;48.296;16.416;2023-04-24T07:26:24;4.10;;;2.47;;
75926;SDS011;64605;48.296;16.416;2023-04-24T07:28:51;4.47;;;2.22;;
75926;SDS011;64605;48.296;16.416;2023-04-24T07:31:17;4.28;;;2.65;;
75926;SDS011;64605;48.296;16.416;2023-04-24T07:33:42;4.15;;;2.50;;
75926;SDS011;64605;48.296;16.416;2023-04-24T07:36:08;3.17;;;2.50;;
75926;SDS011;64605;48.296;16.416;2023-04-24T07:38:40;2.88;;;2.67;;
75926;SDS011;64605;48.296;16.416;2023-04-24T07:41:06;3.63;;;2.83;;
75926;SDS011;64605;48.296;16.416;2023-04-24T07:43:32;3.60;;;2.80;;
75926;SDS011;64605;48.296;16.416;2023-04-24T07:45:57;4.72;;;2.85;;
75926;SDS011;64605;48.296;16.416;2023-04-24T07:48:23;5.32;;;2.78;;
75926;SDS011;64605;48.296;16.416;2023-04-24T07:50:51;7.05;;;3.22;;
75926;SDS011;64605;48.296;16.416;2023-04-24T07:53:16;3.17;;;2.50;;
75926;SDS011;64605;48.296;16.416;2023-04-24T07:55:42;2.70;;;2.50;;
75926;SDS011;64605;48.296;16.416;2023-04-24T07:58:08;2.88;;;2.50;;
75926;SDS011;64605;48.296;16.416;2023-04-24T08:00:34;2.60;;;2.40;;
75926;SDS011;64605;48.296;16.416;2023-04-24T08:03:00;3.42;;;2.35;;
75926;SDS011;64605;48.296;16.416;2023-04-24T08:05:25;8.63;;;2.22;;
75926;SDS011;64605;48.296;16.416;2023-04-24T08:07:53;3.47;;;1.80;;
75926;SDS011;64605;48.296;16.416;2023-04-24T08:10:20;4.80;;;2.08;;
75926;SDS011;64605;48.296;16.416;2023-04-24T08:12:46;3.00;;;1.60;;
75926;SDS011;64605;48.296;16.416;2023-04-24T08:15:12;2.75;;;1.60;;
75926;SDS011;64605;48.296;16.416;2023-04-24T08:17:38;3.10;;;1.60;;
75926;SDS011;64605;48.296;16.416;2023-04-24T08:20:03;3.38;;;1.85;;
75926;SDS011;64605;48.296;16.416;2023-04-24T08:22:30;3.53;;;1.90;;
75926;SDS011;64605;48.296;16.416;2023-04-24T08:24:56;3.65;;;1.73;;
75926;SDS011;64605;48.296;16.416;2023-04-24T08:27:22;3.92;;;2.10;;
75926;SDS011;64605;48.296;16.416;2023-04-24T08:29:49;1.98;;;1.48;;
75926;SDS011;64605;48.296;16.416;2023-04-24T08:32:14;3.47;;;2.10;;
75926;SDS011;64605;48.296;16.416;2023-04-24T08:34:40;1.90;;;1.42;;
75926;SDS011;64605;48.296;16.416;2023-04-24T08:37:06;2.20;;;1.85;;
75926;SDS011;64605;48.296;16.416;2023-04-24T08:39:31;2.30;;;1.80;;
75926;SDS011;64605;48.296;16.416;2023-04-24T08:41:57;1.77;;;1.33;;
75926;SDS011;64605;48.296;16.416;2023-04-24T08:44:30;1.52;;;1.40;;
75926;SDS011;64605;48.296;16.416;2023-04-24T08:46:57;2.53;;;1.63;;
75926;SDS011;64605;48.296;16.416;2023-04-24T08:49:23;4.43;;;1.30;;
75926;SDS011;64605;48.296;16.416;2023-04-24T08:51:50;2.55;;;1.63;;
75926;SDS011;64605;48.296;16.416;2023-04-24T08:54:17;2.63;;;1.73;;
75926;SDS011;64605;48.296;16.416;2023-04-24T08:56:44;1.27;;;1.17;;
75926;SDS011;64605;48.296;16.416;2023-04-24T08:59:12;1.50;;;1.10;;
75926;SDS011;64605;48.296;16.416;2023-04-24T09:01:40;1.27;;;1.00;;
75926;SDS011;64605;48.296;16.416;2023-04-24T09:04:06;1.73;;;0.90;;
75926;SDS011;64605;48.296;16.416;2023-04-24T09:06:35;2.72;;;0.80;;
75926;SDS011;64605;48.296;16.416;2023-04-24T09:09:01;2.47;;;0.80;;
75926;SDS011;64605;48.296;16.416;2023-04-24T09:11:28;0.73;;;0.68;;
75926;SDS011;64605;48.296;16.416;2023-04-24T09:13:55;3.78;;;1.10;;
75926;SDS011;64605;48.296;16.416;2023-04-24T09:16:22;2.28;;;0.90;;
75926;SDS011;64605;48.296;16.416;2023-04-24T09:18:49;1.50;;;0.90;;
75926;SDS011;64605;48.296;16.416;2023-04-24T09:21:15;1.17;;;0.70;;
75926;SDS011;64605;48.296;16.416;2023-04-24T09:23:41;2.72;;;1.00;;
75926;SDS011;64605;48.296;16.416;2023-04-24T09:26:06;3.03;;;0.90;;
75926;SDS011;64605;48.296;16.416;2023-04-24T09:28:36;1.15;;;0.82;;
75926;SDS011;64605;48.296;16.416;2023-04-24T09:33:33;1.50;;;0.90;;
75926;SDS011;64605;48.296;16.416;2023-04-24T09:35:59;1.27;;;0.70;;
75926;SDS011;64605;48.296;16.416;2023-04-24T09:38:35;1.10;;;0.85;;
75926;SDS011;64605;48.296;16.416;2023-04-24T09:41:02;1.20;;;0.80;;
75926;SDS011;64605;48.296;16.416;2023-04-24T09:43:29;1.17;;;0.90;;
75926;SDS011;64605;48.296;16.416;2023-04-24T09:45:56;2.15;;;0.95;;
75926;SDS011;64605;48.296;16.416;2023-04-24T09:48:30;2.15;;;0.70;;
75926;SDS011;64605;48.296;16.416;2023-04-24T09:53:25;1.27;;;0.60;;
75926;SDS011;64605;48.296;16.416;2023-04-24T09:55:51;1.45;;;0.60;;
75926;SDS011;64605;48.296;16.416;2023-04-24T09:58:18;3.60;;;1.00;;
75926;SDS011;64605;48.296;16.416;2023-04-24T10:00:49;1.08;;;0.90;;
75926;SDS011;64605;48.296;16.416;2023-04-24T10:03:17;2.53;;;0.80;;
75926;SDS011;64605;48.296;16.416;2023-04-24T10:05:44;2.42;;;0.90;;
75926;SDS011;64605;48.296;16.416;2023-04-24T10:08:12;1.70;;;0.63;;
75926;SDS011;64605;48.296;16.416;2023-04-24T10:10:40;1.60;;;0.98;;
75926;SDS011;64605;48.296;16.416;2023-04-24T10:13:11;1.98;;;1.00;;
75926;SDS011;64605;48.296;16.416;2023-04-24T10:15:38;1.15;;;0.80;;
75926;SDS011;64605;48.296;16.416;2023-04-24T10:18:05;1.75;;;1.15;;
75926;SDS011;64605;48.296;16.416;2023-04-24T10:20:33;1.33;;;0.75;;
75926;SDS011;64605;48.296;16.416;2023-04-24T10:22:59;1.60;;;0.88;;
75926;SDS011;64605;48.296;16.416;2023-04-24T10:25:35;1.63;;;0.60;;
75926;SDS011;64605;48.296;16.416;2023-04-24T10:28:02;1.58;;;0.80;;
75926;SDS011;64605;48.296;16.416;2023-04-24T10:30:30;1.00;;;0.70;;
75926;SDS011;64605;48.296;16.416;2023-04-24T10:33:00;1.55;;;0.60;;
75926;SDS011;64605;48.296;16.416;2023-04-24T10:35:26;1.63;;;0.75;;
75926;SDS011;64605;48.296;16.416;2023-04-24T10:37:59;1.02;;;0.90;;
75926;SDS011;64605;48.296;16.416;2023-04-24T10:40:32;1.58;;;0.80;;
75926;SDS011;64605;48.296;16.416;2023-04-24T10:42:59;1.58;;;0.80;;
75926;SDS011;64605;48.296;16.416;2023-04-24T10:45:31;1.80;;;0.90;;
75926;SDS011;64605;48.296;16.416;2023-04-24T10:50:22;1.00;;;0.80;;
75926;SDS011;64605;48.296;16.416;2023-04-24T10:52:49;1.55;;;0.93;;
75926;SDS011;64605;48.296;16.416;2023-04-24T10:58:09;1.17;;;0.80;;
75926;SDS011;64605;48.296;16.416;2023-04-24T11:00:39;1.90;;;1.05;;
75926;SDS011;64605;48.296;16.416;2023-04-24T11:03:06;1.67;;;1.00;;
75926;SDS011;64605;48.296;16.416;2023-04-24T11:08:22;1.23;;;1.02;;
75926;SDS011;64605;48.296;16.416;2023-04-24T11:10:58;1.70;;;1.00;;
75926;SDS011;64605;48.296;16.416;2023-04-24T11:13:26;1.60;;;0.90;;
75926;SDS011;64605;48.296;16.416;2023-04-24T11:26:51;1.15;;;0.90;;
75926;SDS011;64605;48.296;16.416;2023-04-24T11:29:43;2.30;;;0.90;;
75926;SDS011;64605;48.296;16.416;2023-04-24T11:37:21;1.30;;;1.10;;
75926;SDS011;64605;48.296;16.416;2023-04-24T11:39:52;1.80;;;1.10;;
75926;SDS011;64605;48.296;16.416;2023-04-24T11:42:19;1.92;;;1.25;;
75926;SDS011;64605;48.296;16.416;2023-04-24T11:44:46;1.38;;;1.20;;
75926;SDS011;64605;48.296;16.416;2023-04-24T11:47:14;4.55;;;1.27;;
75926;SDS011;64605;48.296;16.416;2023-04-24T11:49:40;1.48;;;1.30;;
75926;SDS011;64605;48.296;16.416;2023-04-24T11:52:05;1.92;;;1.40;;
75926;SDS011;64605;48.296;16.416;2023-04-24T11:54:31;1.83;;;1.67;;
75926;SDS011;64605;48.296;16.416;2023-04-24T11:56:57;2.30;;;1.30;;
75926;SDS011;64605;48.296;16.416;2023-04-24T11:59:23;2.67;;;1.35;;
75926;SDS011;64605;48.296;16.416;2023-04-24T12:01:49;2.30;;;1.15;;
75926;SDS011;64605;48.296;16.416;2023-04-24T12:04:16;1.80;;;1.40;;
75926;SDS011;64605;48.296;16.416;2023-04-24T12:07:01;1.88;;;1.40;;
75926;SDS011;64605;48.296;16.416;2023-04-24T12:09:27;6.72;;;1.55;;
75926;SDS011;64605;48.296;16.416;2023-04-24T12:11:54;2.83;;;1.52;;
75926;SDS011;64605;48.296;16.416;2023-04-24T12:14:23;2.38;;;1.58;;
75926;SDS011;64605;48.296;16.416;2023-04-24T12:16:49;2.25;;;1.33;;
75926;SDS011;64605;48.296;16.416;2023-04-24T12:19:22;2.20;;;1.42;;
75926;SDS011;64605;48.296;16.416;2023-04-24T12:21:59;2.47;;;1.50;;
75926;SDS011;64605;48.296;16.416;2023-04-24T12:24:25;1.58;;;1.30;;
75926;SDS011;64605;48.296;16.416;2023-04-24T12:26:51;1.95;;;1.42;;
75926;SDS011;64605;48.296;16.416;2023-04-24T12:29:21;3.95;;;1.70;;
75926;SDS011;64605;48.296;16.416;2023-04-24T12:31:47;2.38;;;1.50;;
75926;SDS011;64605;48.296;16.416;2023-04-24T12:34:19;3.38;;;1.40;;
75926;SDS011;64605;48.296;16.416;2023-04-24T12:36:46;3.38;;;1.77;;
75926;SDS011;64605;48.296;16.416;2023-04-24T12:39:15;3.15;;;1.73;;
75926;SDS011;64605;48.296;16.416;2023-04-24T12:41:56;1.40;;;1.00;;
75926;SDS011;64605;48.296;16.416;2023-04-24T12:44:29;1.83;;;1.20;;
75926;SDS011;64605;48.296;16.416;2023-04-24T12:46:59;2.78;;;1.42;;
75926;SDS011;64605;48.296;16.416;2023-04-24T12:49:25;2.58;;;1.20;;
75926;SDS011;64605;48.296;16.416;2023-04-24T12:51:52;2.58;;;1.00;;
75926;SDS011;64605;48.296;16.416;2023-04-24T12:54:17;2.42;;;1.00;;
75926;SDS011;64605;48.296;16.416;2023-04-24T12:56:43;3.05;;;1.25;;
75926;SDS011;64605;48.296;16.416;2023-04-24T12:59:09;1.27;;;0.80;;
75926;SDS011;64605;48.296;16.416;2023-04-24T13:01:34;1.95;;;1.00;;
75926;SDS011;64605;48.296;16.416;2023-04-24T13:04:00;1.73;;;1.17;;
75926;SDS011;64605;48.296;16.416;2023-04-24T13:06:26;2.72;;;1.20;;
75926;SDS011;64605;48.296;16.416;2023-04-24T13:08:52;1.80;;;1.27;;
75926;SDS011;64605;48.296;16.416;2023-04-24T13:11:19;2.25;;;1.25;;
75926;SDS011;64605;48.296;16.416;2023-04-24T13:13:46;2.17;;;1.45;;
75926;SDS011;64605;48.296;16.416;2023-04-24T13:16:12;2.67;;;1.58;;
75926;SDS011;64605;48.296;16.416;2023-04-24T13:18:38;2.45;;;1.70;;
75926;SDS011;64605;48.296;16.416;2023-04-24T13:21:03;2.67;;;1.42;;
75926;SDS011;64605;48.296;16.416;2023-04-24T13:23:29;3.22;;;1.83;;
75926;SDS011;64605;48.296;16.416;2023-04-24T13:25:55;3.05;;;1.73;;
75926;SDS011;64605;48.296;16.416;2023-04-24T13:28:23;2.60;;;1.58;;
75926;SDS011;64605;48.296;16.416;2023-04-24T13:30:50;4.25;;;1.75;;
75926;SDS011;64605;48.296;16.416;2023-04-24T13:33:16;3.88;;;1.70;;
75926;SDS011;64605;48.296;16.416;2023-04-24T13:35:41;1.90;;;1.27;;
75926;SDS011;64605;48.296;16.416;2023-04-24T13:38:07;4.15;;;1.90;;
75926;SDS011;64605;48.296;16.416;2023-04-24T13:40:34;1.73;;;1.50;;
75926;SDS011;64605;48.296;16.416;2023-04-24T13:43:00;1.95;;;1.65;;
75926;SDS011;64605;48.296;16.416;2023-04-24T13:45:26;3.50;;;2.47;;
75926;SDS011;64605;48.296;16.416;2023-04-24T13:47:52;2.20;;;2.00;;
75926;SDS011;64605;48.296;16.416;2023-04-24T13:50:19;4.40;;;2.75;;
75926;SDS011;64605;48.296;16.416;2023-04-24T13:52:45;3.85;;;3.45;;
75926;SDS011;64605;48.296;16.416;2023-04-24T13:55:14;4.43;;;3.10;;
75926;SDS011;64605;48.296;16.416;2023-04-24T13:57:39;6.18;;;3.60;;
75926;SDS011;64605;48.296;16.416;2023-04-24T14:00:05;2.42;;;2.15;;
75926;SDS011;64605;48.296;16.416;2023-04-24T14:02:35;8.23;;;2.50;;
75926;SDS011;64605;48.296;16.416;2023-04-24T14:05:01;6.63;;;2.72;;
75926;SDS011;64605;48.296;16.416;2023-04-24T14:07:28;9.63;;;3.00;;
75926;SDS011;64605;48.296;16.416;2023-04-24T14:09:54;3.85;;;2.75;;
75926;SDS011;64605;48.296;16.416;2023-04-24T14:12:19;4.05;;;2.67;;
75926;SDS011;64605;48.296;16.416;2023-04-24T14:14:46;3.13;;;2.30;;
75926;SDS011;64605;48.296;16.416;2023-04-24T14:17:13;2.35;;;2.08;;
75926;SDS011;64605;48.296;16.416;2023-04-24T14:19:39;3.33;;;2.10;;
75926;SDS011;64605;48.296;16.416;2023-04-24T14:22:04;5.45;;;3.15;;
75926;SDS011;64605;48.296;16.416;2023-04-24T14:24:30;4.20;;;2.15;;
75926;SDS011;64605;48.296;16.416;2023-04-24T14:26:56;4.07;;;2.72;;
75926;SDS011;64605;48.296;16.416;2023-04-24T14:29:22;3.65;;;2.63;;
75926;SDS011;64605;48.296;16.416;2023-04-24T14:31:47;2.85;;;2.08;;
75926;SDS011;64605;48.296;16.416;2023-04-24T14:34:13;2.75;;;2.33;;
75926;SDS011;64605;48.296;16.416;2023-04-24T14:36:39;4.28;;;2.75;;
75926;SDS011;64605;48.296;16.416;2023-04-24T14:39:05;4.70;;;3.03;;
75926;SDS011;64605;48.296;16.416;2023-04-24T14:41:32;4.13;;;2.85;;
75926;SDS011;64605;48.296;16.416;2023-04-24T14:44:00;6.00;;;3.00;;
75926;SDS011;64605;48.296;16.416;2023-04-24T14:46:27;2.95;;;2.55;;
75926;SDS011;64605;48.296;16.416;2023-04-24T14:48:55;3.20;;;2.67;;
75926;SDS011;64605;48.296;16.416;2023-04-24T14:51:21;4.63;;;2.90;;
75926;SDS011;64605;48.296;16.416;2023-04-24T14:53:47;3.83;;;2.65;;
75926;SDS011;64605;48.296;16.416;2023-04-24T14:56:13;3.33;;;2.63;;
75926;SDS011;64605;48.296;16.416;2023-04-24T14:58:39;2.72;;;2.00;;